Chuathbaluk, Alaska
Current Conditions -  °F | °C
As of 11:55 PM on Monday 20 Oct 2014 (Local Time) from PASV Reporting Station
Scattered Clouds Scattered Clouds  
Wind Chill: 21°   Ceiling: Unl
Heat Index: 21°   Visibility: 10mi
Dew Point: 20°   Wind: 0mph
Humidity: 96%   Direction: NA
Pressure: 29.15"   Gusts: NA
Location:  61.576°N, 156.056°W
Report Text: PASV 210755Z AUTO 00000KT 10SM SCT015 SCT017 M06/M07 A2915 RMK AO2 SLP905 T10631068
Loading
Personal Weather Stations






























Interactive Weather Map
Tropical Storm Tracking
New forecast layout! Learn more

10-Day Weather Forecast

Advertisements
Track Severe Weather on mobile